N G Explorer — C6WR2 — position and weather

sailwx.info

Track history (hours):
 
Tides and Currents Weather Stations Pressure Air Temp Water Temp Dewpoint Dewpoint Depression Visibility Wind Speed Wind Dir Waves Ship Positions

N G Explorer

Last reported at 2019-May-18 23:15 UTC. Time now 2019-May-20 02:33 UTC.
Position N 59°02' W 002°31'.

Length 112 m; draft 4.8 m.

Type: Passenger vessel. MMSI: 309336000.

Date/timePositionNaut miles runAvg speedWind from/ knotsBaromVisibWave heightAir tempDewpointWater temp
2019-May-18 23:15N 59°02' W 002°31'310.7
2019-May-18 23:00N 59°00' W 002°35'714.1
2019-May-18 22:30N 59°01' W 002°49'5 9.4
2019-May-18 22:00N 58°59' W 002°58'0 0.1
2019-May-18 21:30N 58°59' W 002°58'0 0.0
2019-May-18 21:00N 58°59' W 002°58'0 0.0
2019-May-18 20:30N 58°59' W 002°58'0 0.0
2019-May-18 20:00N 58°59' W 002°58'0 0.0
2019-May-18 19:30N 58°59' W 002°58'0 0.0
2019-May-18 19:00N 58°59' W 002°58'0 0.0
2019-May-18 18:30N 58°59' W 002°58'0 0.0
2019-May-18 18:00N 58°59' W 002°58'0 0.0
2019-May-18 17:30N 58°59' W 002°58'0 0.0
2019-May-18 17:00N 58°59' W 002°58'0 0.0
2019-May-18 16:30N 58°59' W 002°58'0 0.0
2019-May-18 16:00N 58°59' W 002°58'0 0.0
2019-May-18 15:30N 58°59' W 002°58'0 0.0
2019-May-18 15:00N 58°59' W 002°58'0 0.0
2019-May-18 14:30N 58°59' W 002°58'0 0.0
2019-May-18 13:57N 58°59' W 002°58'0 0.0
2019-May-18 13:30N 58°59' W 002°58'0 0.0
2019-May-18 13:00N 58°59' W 002°58'0 0.0
2019-May-18 12:30N 58°59' W 002°58'0 0.0
2019-May-18 12:00N 58°59' W 002°58'0 0.0
2019-May-18 11:30N 58°59' W 002°58'0 0.0
2019-May-18 11:00N 58°59' W 002°58'0 0.0
2019-May-18 10:30N 58°59' W 002°58'0 0.0
2019-May-18 10:00N 58°59' W 002°58'0 0.0
2019-May-18 09:30N 58°59' W 002°58'0 0.0
2019-May-18 09:00N 58°59' W 002°58'1 2.6
2019-May-18 08:30N 59°01' W 002°57'612.0
2019-May-18 08:00N 58°60' W 002°46'510.9
2019-May-18 07:30N 58°56' W 002°39'712.9
2019-May-18 07:00N 58°50' W 002°43'815.5
2019-May-18 06:30N 58°44' W 002°52'918.4
2019-May-18 06:01N 58°43' W 003°10'816.1
2019-May-18 05:31N 58°43' W 003°25'814.9
2019-May-18 05:00N 58°43' W 003°40'815.0
2019-May-18 04:30N 58°43' W 003°54'714.6
2019-May-18 04:00N 58°42' W 004°08'714.2
2019-May-18 03:29N 58°42' W 004°23'714.1
2019-May-18 03:00N 58°42' W 004°36'714.1
2019-May-18 02:30N 58°41' W 004°49'713.9
2019-May-18 02:01N 58°41' W 005°02'188 3.8
2019-May-16 00:20N 55°49' W 007°22'26 9.7
2019-May-15 21:38N 55°31' W 007°56'1 9.5
2019-May-15 21:29N 55°30' W 007°58'812.4
2019-May-15 20:50N 55°25' W 008°08'714.1
2019-May-15 20:19N 55°20' W 008°18'1314.0
2019-May-15 19:24N 55°08' W 008°28'613.8
2019-May-15 18:59N 55°03' W 008°30'3 3.0
2019-May-15 17:52N 54°59' W 008°29'0 0.0
2019-May-15 17:28N 54°59' W 008°29'0 0.0
2019-May-15 16:28N 54°59' W 008°29'0 0.0
2019-May-15 15:58N 54°59' W 008°29'0 0.0
2019-May-15 15:04N 54°59' W 008°29'0 0.3
2019-May-15 14:54N 54°59' W 008°29'6 7.5
2019-May-15 14:07N 54°57' W 008°39'1414.9
2019-May-15 13:09N 54°44' W 008°49'514.7
2019-May-15 12:49N 54°40' W 008°52'714.3
2019-May-15 12:21N 54°36' W 008°42'914.0
2019-May-15 11:44N 54°36' W 008°27'1 5.4
2019-May-15 11:30N 54°38' W 008°26'0 0.0
2019-May-15 11:00N 54°38' W 008°26'0 0.0
2019-May-15 10:30N 54°38' W 008°26'0 0.0
2019-May-15 10:00N 54°38' W 008°26'0 0.0
2019-May-15 09:27N 54°38' W 008°26'0 0.0
2019-May-15 09:00N 54°38' W 008°26'0 0.0
2019-May-15 08:30N 54°38' W 008°26'0 0.0
2019-May-15 08:00N 54°38' W 008°26'0 0.0
2019-May-15 07:30N 54°38' W 008°26'0 0.0
2019-May-15 07:00N 54°38' W 008°26'1 2.7
2019-May-15 06:30N 54°36' W 008°27'1610.1
2019-May-15 04:57N 54°32' W 008°53'512.0
2019-May-15 04:30N 54°31' W 009°02'611.3
2019-May-15 03:59N 54°29' W 009°12'612.6
2019-May-15 03:30N 54°28' W 009°22'714.7
2019-May-15 03:00N 54°27' W 009°34'814.9
2019-May-15 02:29N 54°25' W 009°47'714.9
2019-May-15 01:59N 54°23' W 009°59'714.8
2019-May-15 01:31N 54°19' W 010°10'714.7
2019-May-15 01:01N 54°13' W 010°18'714.9
2019-May-15 00:31N 54°07' W 010°24'714.7
2019-May-15 00:00N 53°60' W 010°26'714.8
2019-May-14 23:31N 53°52' W 010°25'714.7
2019-May-14 23:01N 53°45' W 010°25'714.7
2019-May-14 22:31N 53°37' W 010°24'714.6
2019-May-14 22:01N 53°30' W 010°22'714.8
2019-May-14 21:30N 53°23' W 010°19'714.4
2019-May-14 21:01N 53°18' W 010°11'814.7
2019-May-14 20:30N 53°13' W 010°02'814.7
2019-May-14 19:58N 53°08' W 009°52'1214.4
2019-May-14 19:08N 53°02' W 009°35'314.4
2019-May-14 18:58N 53°01' W 009°31'4 0.6
2019-May-14 11:54N 53°05' W 009°30'6 3.0
2019-May-14 09:57N 53°07' W 009°39'0 0.0
2019-May-14 07:48N 53°07' W 009°39'0 0.1
2019-May-14 06:44N 53°07' W 009°39'0 1.8
2019-May-14 06:30N 53°07' W 009°38'510.0
2019-May-14 06:00N 53°05' W 009°31'17 6.3
2019-May-14 03:20N 52°54' W 009°51'5 8.1
2019-May-14 02:41N 52°51' W 009°59'4 8.3
2019-May-14 02:14N 52°49' W 010°04'5 8.0
2019-May-14 01:38N 52°47' W 010°11'2 7.8
2019-May-14 01:26N 52°46' W 010°13'4 7.5
2019-May-14 00:56N 52°44' W 010°18'4 7.9
2019-May-14 00:29N 52°40' W 010°20'4 8.0
2019-May-13 23:59N 52°37' W 010°23'4 8.3
2019-May-13 23:29N 52°33' W 010°26'4 8.5
2019-May-13 22:58N 52°29' W 010°30'41 2.4
2019-May-13 06:01N 51°49' W 010°29'114.0
2019-May-13 05:59N 51°48' W 010°29'3 5.7
2019-May-13 05:25N 51°45' W 010°32'4 8.6
2019-May-13 04:58N 51°42' W 010°29'4 9.3
2019-May-13 04:30N 51°38' W 010°26'511.1
2019-May-13 04:00N 51°33' W 010°22'611.2
2019-May-13 03:30N 51°31' W 010°14'612.9
2019-May-13 03:00N 51°28' W 010°05'713.6
2019-May-13 02:30N 51°24' W 009°55'714.1
2019-May-13 02:00N 51°22' W 009°45'713.5
2019-May-13 01:30N 51°21' W 009°34'1014.4
2019-May-13 00:51N 51°23' W 009°20'514.7
2019-May-13 00:29N 51°25' W 009°12'714.2
2019-May-13 00:00N 51°28' W 009°01'714.4
2019-May-12 23:28N 51°29' W 008°50'714.3
2019-May-12 23:00N 51°32' W 008°39'714.1
2019-May-12 22:31N 51°34' W 008°29'714.1
2019-May-12 22:01N 51°39' W 008°21'713.6
2019-May-12 21:30N 51°45' W 008°17'611.7
2019-May-12 21:00N 51°51' W 008°17'1 1.7
2019-May-12 20:28N 51°51' W 008°18'0 0.0
2019-May-12 19:58N 51°51' W 008°18'0 0.0
2019-May-12 19:28N 51°51' W 008°18'0 0.0
2019-May-12 18:58N 51°51' W 008°18'0 0.0
2019-May-12 18:28N 51°51' W 008°18'0 0.0
2019-May-12 17:58N 51°51' W 008°18'0 0.0
2019-May-12 17:28N 51°51' W 008°18'0 0.0
2019-May-12 16:58N 51°51' W 008°18'0 0.0
2019-May-12 16:28N 51°51' W 008°18'0 0.0
2019-May-12 15:58N 51°51' W 008°18'0 0.0
2019-May-12 15:28N 51°51' W 008°18'0 0.0
2019-May-12 14:58N 51°51' W 008°18'0 0.0
2019-May-12 14:28N 51°51' W 008°18'0 0.0
2019-May-12 13:58N 51°51' W 008°18'0 0.0
2019-May-12 13:28N 51°51' W 008°18'0 0.0
2019-May-12 12:58N 51°51' W 008°18'0 0.0
2019-May-12 12:28N 51°51' W 008°18'0 0.0
2019-May-12 11:58N 51°51' W 008°18'0 0.0
2019-May-12 11:28N 51°51' W 008°18'0 0.0
2019-May-12 10:58N 51°51' W 008°18'0 0.0
2019-May-12 10:28N 51°51' W 008°18'0 0.0
2019-May-12 09:58N 51°51' W 008°18'0 0.0
2019-May-12 09:28N 51°51' W 008°18'0 0.0
2019-May-12 08:58N 51°51' W 008°18'0 0.0
2019-May-12 08:28N 51°51' W 008°18'0 0.0
2019-May-12 07:58N 51°51' W 008°18'0 0.0
2019-May-12 07:28N 51°51' W 008°18'0 0.0
2019-May-12 06:58N 51°51' W 008°18'0 0.0
2019-May-12 06:28N 51°51' W 008°18'0 1.0
2019-May-12 06:00N 51°51' W 008°17'5 9.0
2019-May-12 05:30N 51°47' W 008°15'611.1
2019-May-12 05:00N 51°41' W 008°12'4 7.9
2019-May-12 04:30N 51°38' W 008°10'2 4.6
2019-May-12 04:00N 51°36' W 008°08'3 5.9
2019-May-12 03:30N 51°33' W 008°05'4 8.4
2019-May-12 03:00N 51°30' W 008°02'510.1
2019-May-12 02:30N 51°25' W 007°57'510.0
2019-May-12 02:00N 51°21' W 007°53'510.1
2019-May-12 01:30N 51°17' W 007°48'510.0
2019-May-12 01:00N 51°13' W 007°44'97 5.1
2019-May-11 06:01N 49°53' W 006°17'56 8.7
2019-May-10 23:38N 49°56' W 004°50'311.6
2019-May-10 23:21N 49°57' W 004°45'410.4
2019-May-10 22:59N 50°00' W 004°42'612.3
2019-May-10 22:30N 50°06' W 004°41'612.9
2019-May-10 22:00N 50°12' W 004°40'6 0.4
2019-May-10 05:52N 50°18' W 004°38'3 5.5
2019-May-10 05:21N 50°15' W 004°39'2 5.9
2019-May-10 05:00N 50°13' W 004°39'4 6.2
2019-May-10 04:17N 50°09' W 004°39'2 6.5
2019-May-10 04:00N 50°07' W 004°39'4 6.5
2019-May-10 03:28N 50°03' W 004°39'5 8.9
2019-May-10 02:54N 50°03' W 004°31'9 9.5
2019-May-10 02:00N 50°08' W 004°20'611.1
2019-May-10 01:30N 50°08' W 004°11'714.5
2019-May-10 01:00N 50°08' W 003°60'714.2
2019-May-10 00:30N 50°07' W 003°49'713.6
2019-May-10 00:01N 50°08' W 003°38'713.0
2019-May-09 23:31N 50°09' W 003°28'612.7
2019-May-09 23:01N 50°10' W 003°19'612.5
2019-May-09 22:30N 50°12' W 003°09'612.2
2019-May-09 22:01N 50°14' W 003°00'612.0
2019-May-09 21:30N 50°15' W 002°51'612.2
2019-May-09 21:01N 50°17' W 002°42'1012.6
2019-May-09 20:11N 50°20' W 002°26'413.1
2019-May-09 19:54N 50°21' W 002°21'513.6
2019-May-09 19:30N 50°22' W 002°12'714.2
2019-May-09 18:59N 50°27' W 002°03'715.2
2019-May-09 18:30N 50°31' W 001°54'815.6
2019-May-09 18:00N 50°35' W 001°44'916.2
2019-May-09 17:27N 50°42' W 001°33'1 2.3
2019-May-09 16:56N 50°43' W 001°32'0 0.0
2019-May-09 16:26N 50°43' W 001°32'0 0.0
2019-May-09 15:56N 50°43' W 001°32'0 0.0
2019-May-09 15:26N 50°43' W 001°32'0 0.0
2019-May-09 14:47N 50°43' W 001°32'0 0.0
2019-May-09 14:20N 50°43' W 001°32'0 0.8
2019-May-09 14:01N 50°43' W 001°32'713.5
2019-May-09 13:31N 50°45' W 001°22'611.7
2019-May-09 13:00N 50°46' W 001°13'5 9.4
2019-May-09 12:30N 50°46' W 001°06'2 4.6
2019-May-09 11:59N 50°49' W 001°06'0 0.0
2019-May-09 11:29N 50°49' W 001°06'0 0.0
2019-May-09 10:59N 50°49' W 001°06'0 0.0
2019-May-09 10:29N 50°49' W 001°06'0 0.0
2019-May-09 09:59N 50°49' W 001°06'0 0.0
2019-May-09 09:29N 50°49' W 001°06'0 0.0
2019-May-09 08:59N 50°49' W 001°06'0 0.0
2019-May-09 08:29N 50°49' W 001°06'0 0.0
2019-May-09 07:59N 50°49' W 001°06'0 0.0
2019-May-09 07:29N 50°49' W 001°06'0 0.0
2019-May-09 06:59N 50°49' W 001°06'0 0.0
2019-May-09 06:26N 50°49' W 001°06'0 0.0
2019-May-09 06:01N 50°49' W 001°06'2 3.4
2019-May-09 05:30N 50°47' W 001°06'4 8.0
2019-May-09 05:00N 50°44' W 001°03'4 7.9
2019-May-09 04:31N 50°41' W 000°58'4 8.6
2019-May-09 04:00N 50°38' W 000°53'917.1
2019-May-09 03:30N 50°35' W 000°41'816.8
2019-May-09 03:00N 50°34' W 000°27'3015.0
2019-May-09 01:01N 50°36' E 000°19'114.1
2019-May-09 00:56N 50°36' E 000°21'613.9
2019-May-09 00:30N 50°38' E 000°30'713.5
2019-May-09 00:00N 50°41' E 000°40'713.7
2019-May-08 23:29N 50°45' E 000°49'  
Track history (hours):
 
Tides and Currents Weather Stations Pressure Air Temp Water Temp Dewpoint Dewpoint Depression Visibility Wind Speed Wind Dir Waves Ship Positions

N G Explorer

Last reported at 2019-May-18 23:15 UTC. Time now 2019-May-20 02:33 UTC.
Position N 59°02' W 002°31'.

Length 112 m; draft 4.8 m.

Type: Passenger vessel. MMSI: 309336000.

Date/timePositionNaut miles runAvg speedWind from/ knotsBaromVisibWave heightAir tempDewpointWater temp
2019-May-18 23:15N 59°02' W 002°31'310.7
2019-May-18 23:00N 59°00' W 002°35'714.1
2019-May-18 22:30N 59°01' W 002°49'5 9.4
2019-May-18 22:00N 58°59' W 002°58'0 0.1
2019-May-18 21:30N 58°59' W 002°58'0 0.0
2019-May-18 21:00N 58°59' W 002°58'0 0.0
2019-May-18 20:30N 58°59' W 002°58'0 0.0
2019-May-18 20:00N 58°59' W 002°58'0 0.0
2019-May-18 19:30N 58°59' W 002°58'0 0.0
2019-May-18 19:00N 58°59' W 002°58'0 0.0
2019-May-18 18:30N 58°59' W 002°58'0 0.0
2019-May-18 18:00N 58°59' W 002°58'0 0.0
2019-May-18 17:30N 58°59' W 002°58'0 0.0
2019-May-18 17:00N 58°59' W 002°58'0 0.0
2019-May-18 16:30N 58°59' W 002°58'0 0.0
2019-May-18 16:00N 58°59' W 002°58'0 0.0
2019-May-18 15:30N 58°59' W 002°58'0 0.0
2019-May-18 15:00N 58°59' W 002°58'0 0.0
2019-May-18 14:30N 58°59' W 002°58'0 0.0
2019-May-18 13:57N 58°59' W 002°58'0 0.0
2019-May-18 13:30N 58°59' W 002°58'0 0.0
2019-May-18 13:00N 58°59' W 002°58'0 0.0
2019-May-18 12:30N 58°59' W 002°58'0 0.0
2019-May-18 12:00N 58°59' W 002°58'0 0.0
2019-May-18 11:30N 58°59' W 002°58'0 0.0
2019-May-18 11:00N 58°59' W 002°58'0 0.0
2019-May-18 10:30N 58°59' W 002°58'0 0.0
2019-May-18 10:00N 58°59' W 002°58'0 0.0
2019-May-18 09:30N 58°59' W 002°58'0 0.0
2019-May-18 09:00N 58°59' W 002°58'1 2.6
2019-May-18 08:30N 59°01' W 002°57'612.0
2019-May-18 08:00N 58°60' W 002°46'510.9
2019-May-18 07:30N 58°56' W 002°39'712.9
2019-May-18 07:00N 58°50' W 002°43'815.5
2019-May-18 06:30N 58°44' W 002°52'918.4
2019-May-18 06:01N 58°43' W 003°10'816.1
2019-May-18 05:31N 58°43' W 003°25'814.9
2019-May-18 05:00N 58°43' W 003°40'815.0
2019-May-18 04:30N 58°43' W 003°54'714.6
2019-May-18 04:00N 58°42' W 004°08'714.2
2019-May-18 03:29N 58°42' W 004°23'714.1
2019-May-18 03:00N 58°42' W 004°36'714.1
2019-May-18 02:30N 58°41' W 004°49'713.9
2019-May-18 02:01N 58°41' W 005°02'188 3.8
2019-May-16 00:20N 55°49' W 007°22'26 9.7
2019-May-15 21:38N 55°31' W 007°56'1 9.5
2019-May-15 21:29N 55°30' W 007°58'812.4
2019-May-15 20:50N 55°25' W 008°08'714.1
2019-May-15 20:19N 55°20' W 008°18'1314.0
2019-May-15 19:24N 55°08' W 008°28'613.8
2019-May-15 18:59N 55°03' W 008°30'3 3.0
2019-May-15 17:52N 54°59' W 008°29'0 0.0
2019-May-15 17:28N 54°59' W 008°29'0 0.0
2019-May-15 16:28N 54°59' W 008°29'0 0.0
2019-May-15 15:58N 54°59' W 008°29'0 0.0
2019-May-15 15:04N 54°59' W 008°29'0 0.3
2019-May-15 14:54N 54°59' W 008°29'6 7.5
2019-May-15 14:07N 54°57' W 008°39'1414.9
2019-May-15 13:09N 54°44' W 008°49'514.7
2019-May-15 12:49N 54°40' W 008°52'714.3
2019-May-15 12:21N 54°36' W 008°42'914.0
2019-May-15 11:44N 54°36' W 008°27'1 5.4
2019-May-15 11:30N 54°38' W 008°26'0 0.0
2019-May-15 11:00N 54°38' W 008°26'0 0.0
2019-May-15 10:30N 54°38' W 008°26'0 0.0
2019-May-15 10:00N 54°38' W 008°26'0 0.0
2019-May-15 09:27N 54°38' W 008°26'0 0.0
2019-May-15 09:00N 54°38' W 008°26'0 0.0
2019-May-15 08:30N 54°38' W 008°26'0 0.0
2019-May-15 08:00N 54°38' W 008°26'0 0.0
2019-May-15 07:30N 54°38' W 008°26'0 0.0
2019-May-15 07:00N 54°38' W 008°26'1 2.7
2019-May-15 06:30N 54°36' W 008°27'1610.1
2019-May-15 04:57N 54°32' W 008°53'512.0
2019-May-15 04:30N 54°31' W 009°02'611.3
2019-May-15 03:59N 54°29' W 009°12'612.6
2019-May-15 03:30N 54°28' W 009°22'714.7
2019-May-15 03:00N 54°27' W 009°34'814.9
2019-May-15 02:29N 54°25' W 009°47'714.9
2019-May-15 01:59N 54°23' W 009°59'714.8
2019-May-15 01:31N 54°19' W 010°10'714.7
2019-May-15 01:01N 54°13' W 010°18'714.9
2019-May-15 00:31N 54°07' W 010°24'714.7
2019-May-15 00:00N 53°60' W 010°26'714.8
2019-May-14 23:31N 53°52' W 010°25'714.7
2019-May-14 23:01N 53°45' W 010°25'714.7
2019-May-14 22:31N 53°37' W 010°24'714.6
2019-May-14 22:01N 53°30' W 010°22'714.8
2019-May-14 21:30N 53°23' W 010°19'714.4
2019-May-14 21:01N 53°18' W 010°11'814.7
2019-May-14 20:30N 53°13' W 010°02'814.7
2019-May-14 19:58N 53°08' W 009°52'1214.4
2019-May-14 19:08N 53°02' W 009°35'314.4
2019-May-14 18:58N 53°01' W 009°31'4 0.6
2019-May-14 11:54N 53°05' W 009°30'6 3.0
2019-May-14 09:57N 53°07' W 009°39'0 0.0
2019-May-14 07:48N 53°07' W 009°39'0 0.1
2019-May-14 06:44N 53°07' W 009°39'0 1.8
2019-May-14 06:30N 53°07' W 009°38'510.0
2019-May-14 06:00N 53°05' W 009°31'17 6.3
2019-May-14 03:20N 52°54' W 009°51'5 8.1
2019-May-14 02:41N 52°51' W 009°59'4 8.3
2019-May-14 02:14N 52°49' W 010°04'5 8.0
2019-May-14 01:38N 52°47' W 010°11'2 7.8
2019-May-14 01:26N 52°46' W 010°13'4 7.5
2019-May-14 00:56N 52°44' W 010°18'4 7.9
2019-May-14 00:29N 52°40' W 010°20'4 8.0
2019-May-13 23:59N 52°37' W 010°23'4 8.3
2019-May-13 23:29N 52°33' W 010°26'4 8.5
2019-May-13 22:58N 52°29' W 010°30'41 2.4
2019-May-13 06:01N 51°49' W 010°29'114.0
2019-May-13 05:59N 51°48' W 010°29'3 5.7
2019-May-13 05:25N 51°45' W 010°32'4 8.6
2019-May-13 04:58N 51°42' W 010°29'4 9.3
2019-May-13 04:30N 51°38' W 010°26'511.1
2019-May-13 04:00N 51°33' W 010°22'611.2
2019-May-13 03:30N 51°31' W 010°14'612.9
2019-May-13 03:00N 51°28' W 010°05'713.6
2019-May-13 02:30N 51°24' W 009°55'714.1
2019-May-13 02:00N 51°22' W 009°45'713.5
2019-May-13 01:30N 51°21' W 009°34'1014.4
2019-May-13 00:51N 51°23' W 009°20'514.7
2019-May-13 00:29N 51°25' W 009°12'714.2
2019-May-13 00:00N 51°28' W 009°01'714.4
2019-May-12 23:28N 51°29' W 008°50'714.3
2019-May-12 23:00N 51°32' W 008°39'714.1
2019-May-12 22:31N 51°34' W 008°29'714.1
2019-May-12 22:01N 51°39' W 008°21'713.6
2019-May-12 21:30N 51°45' W 008°17'611.7
2019-May-12 21:00N 51°51' W 008°17'1 1.7
2019-May-12 20:28N 51°51' W 008°18'0 0.0
2019-May-12 19:58N 51°51' W 008°18'0 0.0
2019-May-12 19:28N 51°51' W 008°18'0 0.0
2019-May-12 18:58N 51°51' W 008°18'0 0.0
2019-May-12 18:28N 51°51' W 008°18'0 0.0
2019-May-12 17:58N 51°51' W 008°18'0 0.0
2019-May-12 17:28N 51°51' W 008°18'0 0.0
2019-May-12 16:58N 51°51' W 008°18'0 0.0
2019-May-12 16:28N 51°51' W 008°18'0 0.0
2019-May-12 15:58N 51°51' W 008°18'0 0.0
2019-May-12 15:28N 51°51' W 008°18'0 0.0
2019-May-12 14:58N 51°51' W 008°18'0 0.0
2019-May-12 14:28N 51°51' W 008°18'0 0.0
2019-May-12 13:58N 51°51' W 008°18'0 0.0
2019-May-12 13:28N 51°51' W 008°18'0 0.0
2019-May-12 12:58N 51°51' W 008°18'0 0.0
2019-May-12 12:28N 51°51' W 008°18'0 0.0
2019-May-12 11:58N 51°51' W 008°18'0 0.0
2019-May-12 11:28N 51°51' W 008°18'0 0.0
2019-May-12 10:58N 51°51' W 008°18'0 0.0
2019-May-12 10:28N 51°51' W 008°18'0 0.0
2019-May-12 09:58N 51°51' W 008°18'0 0.0
2019-May-12 09:28N 51°51' W 008°18'0 0.0
2019-May-12 08:58N 51°51' W 008°18'0 0.0
2019-May-12 08:28N 51°51' W 008°18'0 0.0
2019-May-12 07:58N 51°51' W 008°18'0 0.0
2019-May-12 07:28N 51°51' W 008°18'0 0.0
2019-May-12 06:58N 51°51' W 008°18'0 0.0
2019-May-12 06:28N 51°51' W 008°18'0 1.0
2019-May-12 06:00N 51°51' W 008°17'5 9.0
2019-May-12 05:30N 51°47' W 008°15'611.1
2019-May-12 05:00N 51°41' W 008°12'4 7.9
2019-May-12 04:30N 51°38' W 008°10'2 4.6
2019-May-12 04:00N 51°36' W 008°08'3 5.9
2019-May-12 03:30N 51°33' W 008°05'4 8.4
2019-May-12 03:00N 51°30' W 008°02'510.1
2019-May-12 02:30N 51°25' W 007°57'510.0
2019-May-12 02:00N 51°21' W 007°53'510.1
2019-May-12 01:30N 51°17' W 007°48'510.0
2019-May-12 01:00N 51°13' W 007°44'97 5.1
2019-May-11 06:01N 49°53' W 006°17'56 8.7
2019-May-10 23:38N 49°56' W 004°50'311.6
2019-May-10 23:21N 49°57' W 004°45'410.4
2019-May-10 22:59N 50°00' W 004°42'612.3
2019-May-10 22:30N 50°06' W 004°41'612.9
2019-May-10 22:00N 50°12' W 004°40'6 0.4
2019-May-10 05:52N 50°18' W 004°38'3 5.5
2019-May-10 05:21N 50°15' W 004°39'2 5.9
2019-May-10 05:00N 50°13' W 004°39'4 6.2
2019-May-10 04:17N 50°09' W 004°39'2 6.5
2019-May-10 04:00N 50°07' W 004°39'4 6.5
2019-May-10 03:28N 50°03' W 004°39'5 8.9
2019-May-10 02:54N 50°03' W 004°31'9 9.5
2019-May-10 02:00N 50°08' W 004°20'611.1
2019-May-10 01:30N 50°08' W 004°11'714.5
2019-May-10 01:00N 50°08' W 003°60'714.2
2019-May-10 00:30N 50°07' W 003°49'713.6
2019-May-10 00:01N 50°08' W 003°38'713.0
2019-May-09 23:31N 50°09' W 003°28'612.7
2019-May-09 23:01N 50°10' W 003°19'612.5
2019-May-09 22:30N 50°12' W 003°09'612.2
2019-May-09 22:01N 50°14' W 003°00'612.0
2019-May-09 21:30N 50°15' W 002°51'612.2
2019-May-09 21:01N 50°17' W 002°42'1012.6
2019-May-09 20:11N 50°20' W 002°26'413.1
2019-May-09 19:54N 50°21' W 002°21'513.6
2019-May-09 19:30N 50°22' W 002°12'714.2
2019-May-09 18:59N 50°27' W 002°03'715.2
2019-May-09 18:30N 50°31' W 001°54'815.6
2019-May-09 18:00N 50°35' W 001°44'916.2
2019-May-09 17:27N 50°42' W 001°33'1 2.3
2019-May-09 16:56N 50°43' W 001°32'0 0.0
2019-May-09 16:26N 50°43' W 001°32'0 0.0
2019-May-09 15:56N 50°43' W 001°32'0 0.0
2019-May-09 15:26N 50°43' W 001°32'0 0.0
2019-May-09 14:47N 50°43' W 001°32'0 0.0
2019-May-09 14:20N 50°43' W 001°32'0 0.8
2019-May-09 14:01N 50°43' W 001°32'713.5
2019-May-09 13:31N 50°45' W 001°22'611.7
2019-May-09 13:00N 50°46' W 001°13'5 9.4
2019-May-09 12:30N 50°46' W 001°06'2 4.6
2019-May-09 11:59N 50°49' W 001°06'0 0.0
2019-May-09 11:29N 50°49' W 001°06'0 0.0
2019-May-09 10:59N 50°49' W 001°06'0 0.0
2019-May-09 10:29N 50°49' W 001°06'0 0.0
2019-May-09 09:59N 50°49' W 001°06'0 0.0
2019-May-09 09:29N 50°49' W 001°06'0 0.0
2019-May-09 08:59N 50°49' W 001°06'0 0.0
2019-May-09 08:29N 50°49' W 001°06'0 0.0
2019-May-09 07:59N 50°49' W 001°06'0 0.0
2019-May-09 07:29N 50°49' W 001°06'0 0.0
2019-May-09 06:59N 50°49' W 001°06'0 0.0
2019-May-09 06:26N 50°49' W 001°06'0 0.0
2019-May-09 06:01N 50°49' W 001°06'2 3.4
2019-May-09 05:30N 50°47' W 001°06'4 8.0
2019-May-09 05:00N 50°44' W 001°03'4 7.9
2019-May-09 04:31N 50°41' W 000°58'4 8.6
2019-May-09 04:00N 50°38' W 000°53'917.1
2019-May-09 03:30N 50°35' W 000°41'816.8
2019-May-09 03:00N 50°34' W 000°27'3015.0
2019-May-09 01:01N 50°36' E 000°19'114.1
2019-May-09 00:56N 50°36' E 000°21'613.9
2019-May-09 00:30N 50°38' E 000°30'713.5
2019-May-09 00:00N 50°41' E 000°40'713.7
2019-May-08 23:29N 50°45' E 000°49'  

Dump ship's entire track history